createdAt,value
2018-11-02T00:01:25.635Z,5.50
2018-11-02T00:06:30.845Z,5.97
2018-11-02T00:11:36.181Z,5.47
2018-11-02T00:16:41.492Z,4.67
2018-11-02T00:21:46.427Z,5.13
2018-11-02T00:26:51.304Z,4.93
2018-11-02T00:31:56.215Z,4.10
2018-11-02T00:37:01.394Z,4.10
2018-11-02T00:42:07.153Z,4.60
2018-11-02T00:47:12.365Z,3.67
2018-11-02T00:52:17.800Z,4.47
2018-11-02T00:57:22.954Z,6.83
2018-11-02T01:02:27.879Z,5.20
2018-11-02T01:07:33.375Z,5.37
2018-11-02T01:12:39.315Z,5.30
2018-11-02T01:17:45.149Z,5.73
2018-11-02T01:22:50.405Z,5.20
2018-11-02T01:27:55.434Z,5.40
2018-11-02T01:33:00.378Z,4.80
2018-11-02T01:38:05.396Z,5.13
2018-11-02T01:43:10.648Z,4.37
2018-11-02T01:48:16.942Z,4.17
2018-11-02T01:53:21.869Z,4.70
2018-11-02T01:58:26.877Z,4.47
2018-11-02T02:03:31.781Z,5.47
2018-11-02T02:08:36.906Z,5.17
2018-11-02T02:13:42.931Z,4.70
2018-11-02T02:18:49.138Z,4.57
2018-11-02T02:23:56.209Z,4.67
2018-11-02T02:29:07.175Z,4.63
2018-11-02T02:34:15.076Z,5.27
2018-11-02T02:39:23.637Z,5.40
2018-11-02T02:44:29.596Z,6.00
2018-11-02T02:49:34.605Z,5.03
2018-11-02T02:54:39.533Z,4.53
2018-11-02T02:59:44.701Z,3.63
2018-11-02T03:04:49.641Z,4.03
2018-11-02T03:09:54.746Z,5.10
2018-11-02T03:14:59.771Z,5.63
2018-11-02T03:20:05.947Z,5.20
2018-11-02T03:25:11.984Z,5.03
2018-11-02T03:30:16.832Z,4.97
2018-11-02T03:35:21.752Z,5.07
2018-11-02T03:40:26.729Z,5.23
2018-11-02T03:45:31.730Z,5.47
2018-11-02T03:50:36.648Z,5.50
2018-11-02T03:55:42.326Z,5.37
2018-11-02T04:00:48.071Z,5.90
2018-11-02T04:05:52.900Z,6.10
2018-11-02T04:10:57.776Z,6.53
2018-11-02T04:16:02.785Z,6.10
2018-11-02T04:21:07.713Z,6.27
2018-11-02T04:26:12.862Z,6.30
2018-11-02T04:31:17.920Z,5.17
2018-11-02T04:36:22.853Z,5.70
2018-11-02T04:41:27.732Z,5.43
2018-11-02T04:46:32.628Z,4.80
2018-11-02T04:51:37.795Z,4.70
2018-11-02T04:56:43.074Z,4.17
2018-11-02T05:01:48.057Z,3.50
2018-11-02T05:06:52.905Z,3.70
2018-11-02T05:11:58.070Z,3.90
2018-11-02T05:17:02.942Z,4.27
2018-11-02T05:22:07.881Z,2.90
2018-11-02T05:27:13.079Z,3.10
2018-11-02T05:32:17.937Z,2.97
2018-11-02T05:37:22.908Z,2.83
2018-11-02T05:42:27.927Z,3.50
2018-11-02T05:47:32.837Z,4.20
2018-11-02T05:52:37.960Z,4.43
2018-11-02T05:57:43.177Z,4.90
2018-11-02T06:02:48.238Z,4.60
2018-11-02T06:07:53.223Z,5.03
2018-11-02T06:12:58.032Z,5.70
2018-11-02T06:18:02.965Z,6.93
2018-11-02T06:23:07.912Z,5.93
2018-11-02T06:28:13.348Z,5.80
2018-11-02T06:33:18.299Z,6.33
2018-11-02T06:38:23.344Z,5.63
2018-11-02T06:43:28.320Z,6.10
2018-11-02T06:48:33.225Z,4.97
2018-11-02T06:53:38.148Z,5.13
2018-11-02T06:58:43.166Z,5.47
2018-11-02T07:03:48.226Z,4.30
2018-11-02T07:08:53.059Z,4.47
2018-11-02T07:13:58.033Z,4.17
2018-11-02T07:19:03.618Z,4.23
2018-11-02T07:24:08.752Z,4.63
2018-11-02T07:29:14.406Z,3.97
2018-11-02T07:34:19.373Z,3.50
2018-11-02T07:39:24.365Z,3.67
2018-11-02T07:44:29.419Z,3.80
2018-11-02T07:49:35.405Z,3.70
2018-11-02T07:54:40.444Z,3.70
2018-11-02T07:59:45.453Z,4.40
2018-11-02T08:04:50.514Z,4.43
2018-11-02T08:09:55.366Z,4.87
2018-11-02T08:15:00.377Z,4.67
2018-11-02T08:20:05.724Z,4.67
2018-11-02T08:25:11.480Z,5.30
2018-11-02T08:30:18.967Z,3.37
2018-11-02T08:35:24.857Z,4.00
2018-11-02T08:40:29.983Z,4.40
2018-11-02T08:45:34.880Z,3.80
2018-11-02T08:50:39.838Z,4.73
2018-11-02T08:55:44.892Z,3.80
2018-11-02T09:00:52.216Z,3.17
2018-11-02T09:06:00.339Z,3.93
2018-11-02T09:11:05.460Z,4.07
2018-11-02T09:16:10.484Z,3.77
2018-11-02T09:21:15.493Z,3.47
2018-11-02T09:26:20.908Z,3.70
2018-11-02T09:31:26.695Z,3.67
2018-11-02T09:36:32.901Z,4.07
2018-11-02T09:41:44.245Z,3.70
2018-11-02T09:46:49.168Z,3.70
2018-11-02T09:51:57.359Z,3.50
2018-11-02T09:57:02.276Z,4.20
2018-11-02T10:02:09.128Z,3.80
2018-11-02T10:07:14.888Z,4.77
2018-11-02T10:12:20.221Z,5.63
2018-11-02T10:17:25.319Z,5.80
2018-11-02T10:22:30.247Z,6.70
2018-11-02T10:27:35.922Z,6.50
2018-11-02T10:32:41.880Z,6.90
2018-11-02T10:37:48.134Z,7.30
2018-11-02T10:42:55.708Z,7.57
2018-11-02T10:48:01.582Z,7.63
2018-11-02T10:53:06.713Z,8.40
2018-11-02T10:58:11.663Z,8.33
2018-11-02T11:03:16.820Z,7.63
2018-11-02T11:08:22.292Z,7.90
2018-11-02T11:13:27.503Z,8.10
2018-11-02T11:18:32.465Z,7.97
2018-11-02T11:23:37.490Z,4.03
2018-11-02T11:28:42.532Z,4.80
2018-11-02T11:33:47.544Z,4.37
2018-11-02T11:38:52.834Z,4.07
2018-11-02T11:43:57.929Z,5.97
2018-11-02T11:49:03.052Z,3.07
2018-11-02T11:54:07.894Z,2.20
2018-11-02T11:59:13.078Z,4.00
2018-11-02T12:04:18.557Z,3.73
2018-11-02T12:09:23.657Z,2.83
2018-11-02T12:14:28.595Z,2.97
2018-11-02T12:19:33.712Z,2.97
2018-11-02T12:24:38.731Z,3.73
2018-11-02T12:29:43.664Z,3.60
2018-11-02T12:34:51.796Z,2.60
2018-11-02T12:39:59.041Z,2.50
2018-11-02T12:45:03.924Z,3.33
2018-11-02T12:50:14.590Z,3.50
2018-11-02T12:55:21.054Z,3.13
2018-11-02T13:00:27.312Z,3.50
2018-11-02T13:05:32.291Z,2.80
2018-11-02T13:10:38.321Z,2.83
2018-11-02T13:15:43.305Z,3.67
2018-11-02T13:20:49.743Z,2.30
2018-11-02T13:25:55.641Z,2.10
2018-11-02T13:31:00.626Z,2.60
2018-11-02T13:36:06.040Z,2.30
2018-11-02T13:41:10.886Z,2.23
2018-11-02T13:46:15.766Z,1.97
2018-11-02T13:51:21.412Z,2.23
2018-11-02T14:02:37.809Z,2.20
2018-11-02T14:07:42.967Z,2.80
2018-11-02T14:12:48.324Z,3.37
2018-11-02T14:17:53.188Z,2.40
2018-11-02T14:22:59.306Z,1.60
2018-11-02T14:28:04.370Z,9.93
2018-11-02T14:33:09.314Z,2.47
2018-11-02T14:38:14.183Z,1.97
2018-11-02T14:43:19.301Z,1.93
2018-11-02T14:48:24.296Z,1.43
2018-11-02T14:53:29.750Z,2.40
2018-11-02T14:58:34.625Z,1.07
2018-11-02T15:03:41.561Z,1.20
2018-11-02T15:08:46.693Z,1.40
2018-11-02T15:13:51.870Z,1.67
2018-11-02T15:18:57.499Z,1.40
2018-11-02T15:24:03.748Z,1.50
2018-11-02T15:29:08.729Z,1.50
2018-11-02T15:34:13.781Z,2.23
2018-11-02T15:39:19.014Z,2.17
2018-11-02T15:44:24.084Z,2.10
2018-11-02T15:49:29.034Z,2.20
2018-11-02T15:54:34.028Z,2.50
2018-11-02T15:59:38.916Z,2.50
2018-11-02T16:04:43.824Z,2.40
2018-11-02T16:09:49.496Z,2.63
2018-11-02T16:14:54.594Z,3.10
2018-11-02T16:19:59.531Z,3.07
2018-11-02T16:25:05.121Z,3.77
2018-11-02T16:30:10.671Z,5.50
2018-11-02T16:35:15.629Z,6.40
2018-11-02T16:40:20.637Z,6.30
2018-11-02T16:45:26.719Z,6.73
2018-11-02T16:50:31.678Z,5.93
2018-11-02T16:55:36.575Z,6.50
2018-11-02T17:00:41.597Z,6.28
2018-11-02T17:05:46.982Z,5.73
2018-11-02T17:10:52.145Z,4.37
2018-11-02T17:15:57.149Z,5.20
2018-11-02T17:21:02.171Z,6.03
2018-11-02T17:26:07.499Z,5.30
2018-11-02T17:31:12.594Z,6.43
2018-11-02T17:36:17.706Z,6.13
2018-11-02T17:41:23.220Z,6.70
2018-11-02T17:46:28.341Z,6.70
2018-11-02T17:51:33.429Z,7.97
2018-11-02T17:56:38.590Z,7.73
2018-11-02T18:01:43.533Z,7.80
2018-11-02T18:06:48.758Z,7.00
2018-11-02T18:11:54.411Z,7.70
2018-11-02T18:16:59.338Z,8.50
2018-11-02T18:22:04.542Z,6.00
2018-11-02T18:27:09.581Z,5.67
2018-11-02T18:32:14.707Z,5.47
2018-11-02T18:37:19.782Z,6.63
2018-11-02T18:42:24.806Z,6.27
2018-11-02T18:47:34.866Z,5.93
2018-11-02T18:52:40.582Z,6.57
2018-11-02T18:57:47.660Z,6.00
2018-11-02T19:02:52.977Z,7.90
2018-11-02T19:07:58.056Z,7.37
2018-11-02T19:13:03.090Z,10.10
2018-11-02T19:18:09.024Z,7.40
2018-11-02T19:23:14.045Z,10.20
2018-11-02T19:28:19.152Z,14.03
2018-11-02T19:33:24.124Z,7.07
2018-11-02T19:38:29.110Z,6.97
2018-11-02T19:43:34.066Z,10.20
2018-11-02T19:48:39.124Z,6.93
2018-11-02T19:53:44.313Z,7.23
2018-11-02T19:58:49.761Z,9.30
2018-11-02T20:03:55.512Z,10.50
2018-11-02T20:09:00.512Z,9.60
2018-11-02T20:14:06.648Z,9.17
2018-11-02T20:19:11.658Z,9.73
2018-11-02T20:24:17.039Z,9.37
2018-11-02T20:29:21.968Z,10.73
2018-11-02T20:34:27.225Z,22.73
2018-11-02T20:39:32.201Z,18.50
2018-11-02T20:44:37.040Z,8.93
2018-11-02T20:49:42.005Z,11.43
2018-11-02T20:54:47.304Z,10.10
2018-11-02T20:59:52.201Z,9.93
2018-11-02T21:04:57.203Z,11.33
2018-11-02T21:10:02.393Z,11.93
2018-11-02T21:15:10.213Z,9.97
2018-11-02T21:20:16.472Z,9.20
2018-11-02T21:25:21.460Z,9.80
2018-11-02T21:30:27.132Z,13.47
2018-11-02T21:35:32.298Z,11.90
2018-11-02T21:40:37.764Z,17.00
2018-11-02T21:45:42.839Z,15.87
2018-11-02T21:50:47.899Z,13.87
2018-11-02T21:55:52.837Z,11.70
2018-11-02T22:00:57.929Z,10.53
2018-11-02T22:06:03.145Z,12.63
2018-11-02T22:11:08.721Z,11.17
2018-11-02T22:16:13.819Z,7.87
2018-11-02T22:21:18.792Z,8.73
2018-11-02T22:26:23.693Z,7.40
2018-11-02T22:31:28.831Z,7.30
2018-11-02T22:36:33.789Z,8.60
2018-11-02T22:41:39.141Z,7.17
2018-11-02T22:46:44.361Z,10.20
2018-11-02T22:51:49.335Z,6.73
2018-11-02T22:56:54.524Z,6.63
2018-11-02T23:02:09.117Z,7.23
2018-11-02T23:07:15.832Z,6.63
2018-11-02T23:12:22.485Z,6.77
2018-11-02T23:17:28.925Z,6.80
2018-11-02T23:22:34.597Z,6.27
2018-11-02T23:27:43.787Z,6.83
2018-11-02T23:32:56.609Z,9.13
2018-11-02T23:38:05.736Z,7.47
2018-11-02T23:43:12.063Z,6.80
2018-11-02T23:48:18.393Z,6.67
2018-11-02T23:53:23.891Z,6.23
2018-11-02T23:58:28.817Z,5.70
